sensor_id;sensor_type;location;lat;lon;timestamp;P1;durP1;ratioP1;P2;durP2;ratioP2
76113;SDS011;64845;53.086;5.834;2023-04-24T00:01:21;6.10;;;4.70;;
76113;SDS011;64845;53.086;5.834;2023-04-24T00:03:46;5.97;;;4.38;;
76113;SDS011;64845;53.086;5.834;2023-04-24T00:06:12;8.00;;;5.03;;
76113;SDS011;64845;53.086;5.834;2023-04-24T00:08:37;5.95;;;4.18;;
76113;SDS011;64845;53.086;5.834;2023-04-24T00:11:03;8.35;;;3.92;;
76113;SDS011;64845;53.086;5.834;2023-04-24T00:13:28;4.60;;;4.13;;
76113;SDS011;64845;53.086;5.834;2023-04-24T00:15:54;9.48;;;5.00;;
76113;SDS011;64845;53.086;5.834;2023-04-24T00:18:20;6.20;;;4.68;;
76113;SDS011;64845;53.086;5.834;2023-04-24T00:20:45;6.30;;;5.28;;
76113;SDS011;64845;53.086;5.834;2023-04-24T00:23:11;8.07;;;5.40;;
76113;SDS011;64845;53.086;5.834;2023-04-24T00:25:37;5.38;;;4.88;;
76113;SDS011;64845;53.086;5.834;2023-04-24T00:28:02;6.72;;;5.30;;
76113;SDS011;64845;53.086;5.834;2023-04-24T00:30:28;6.00;;;5.40;;
76113;SDS011;64845;53.086;5.834;2023-04-24T00:32:53;7.57;;;4.88;;
76113;SDS011;64845;53.086;5.834;2023-04-24T00:35:19;6.45;;;4.95;;
76113;SDS011;64845;53.086;5.834;2023-04-24T00:37:45;8.80;;;5.55;;
76113;SDS011;64845;53.086;5.834;2023-04-24T00:40:10;7.07;;;5.25;;
76113;SDS011;64845;53.086;5.834;2023-04-24T00:42:36;5.75;;;5.18;;
76113;SDS011;64845;53.086;5.834;2023-04-24T00:45:01;6.50;;;5.03;;
76113;SDS011;64845;53.086;5.834;2023-04-24T00:47:28;8.02;;;5.43;;
76113;SDS011;64845;53.086;5.834;2023-04-24T00:49:54;6.38;;;5.55;;
76113;SDS011;64845;53.086;5.834;2023-04-24T00:52:19;7.05;;;5.32;;
76113;SDS011;64845;53.086;5.834;2023-04-24T00:54:45;10.93;;;5.47;;
76113;SDS011;64845;53.086;5.834;2023-04-24T00:57:11;7.35;;;5.10;;
76113;SDS011;64845;53.086;5.834;2023-04-24T00:59:38;6.13;;;5.47;;
76113;SDS011;64845;53.086;5.834;2023-04-24T01:02:06;6.03;;;5.05;;
76113;SDS011;64845;53.086;5.834;2023-04-24T01:04:32;7.03;;;5.47;;
76113;SDS011;64845;53.086;5.834;2023-04-24T01:06:57;8.43;;;5.68;;
76113;SDS011;64845;53.086;5.834;2023-04-24T01:09:23;8.30;;;6.45;;
76113;SDS011;64845;53.086;5.834;2023-04-24T01:11:50;7.72;;;6.15;;
76113;SDS011;64845;53.086;5.834;2023-04-24T01:14:15;8.13;;;6.00;;
76113;SDS011;64845;53.086;5.834;2023-04-24T01:16:41;7.63;;;6.35;;
76113;SDS011;64845;53.086;5.834;2023-04-24T01:19:07;6.90;;;6.20;;
76113;SDS011;64845;53.086;5.834;2023-04-24T01:21:36;7.13;;;6.43;;
76113;SDS011;64845;53.086;5.834;2023-04-24T01:24:03;7.75;;;6.95;;
76113;SDS011;64845;53.086;5.834;2023-04-24T01:26:30;8.20;;;6.80;;
76113;SDS011;64845;53.086;5.834;2023-04-24T01:28:55;9.90;;;6.72;;
76113;SDS011;64845;53.086;5.834;2023-04-24T01:31:21;8.00;;;7.20;;
76113;SDS011;64845;53.086;5.834;2023-04-24T01:33:47;13.88;;;7.43;;
76113;SDS011;64845;53.086;5.834;2023-04-24T01:36:13;8.70;;;6.53;;
76113;SDS011;64845;53.086;5.834;2023-04-24T01:38:38;8.77;;;6.72;;
76113;SDS011;64845;53.086;5.834;2023-04-24T01:41:04;9.23;;;7.30;;
76113;SDS011;64845;53.086;5.834;2023-04-24T01:43:30;7.60;;;6.72;;
76113;SDS011;64845;53.086;5.834;2023-04-24T01:45:55;7.65;;;6.85;;
76113;SDS011;64845;53.086;5.834;2023-04-24T01:48:21;6.68;;;5.97;;
76113;SDS011;64845;53.086;5.834;2023-04-24T01:50:47;7.13;;;6.22;;
76113;SDS011;64845;53.086;5.834;2023-04-24T01:53:12;8.73;;;6.60;;
76113;SDS011;64845;53.086;5.834;2023-04-24T01:55:38;8.05;;;6.30;;
76113;SDS011;64845;53.086;5.834;2023-04-24T01:58:03;7.30;;;5.68;;
76113;SDS011;64845;53.086;5.834;2023-04-24T02:00:29;6.90;;;5.47;;
76113;SDS011;64845;53.086;5.834;2023-04-24T02:02:54;6.05;;;5.45;;
76113;SDS011;64845;53.086;5.834;2023-04-24T02:05:20;6.47;;;5.65;;
76113;SDS011;64845;53.086;5.834;2023-04-24T02:07:45;6.97;;;5.82;;
76113;SDS011;64845;53.086;5.834;2023-04-24T02:10:11;7.00;;;5.70;;
76113;SDS011;64845;53.086;5.834;2023-04-24T02:12:36;6.57;;;5.88;;
76113;SDS011;64845;53.086;5.834;2023-04-24T02:15:02;7.15;;;5.47;;
76113;SDS011;64845;53.086;5.834;2023-04-24T02:17:27;9.60;;;6.70;;
76113;SDS011;64845;53.086;5.834;2023-04-24T02:19:53;6.22;;;5.60;;
76113;SDS011;64845;53.086;5.834;2023-04-24T02:22:18;9.55;;;6.72;;
76113;SDS011;64845;53.086;5.834;2023-04-24T02:24:44;7.88;;;6.43;;
76113;SDS011;64845;53.086;5.834;2023-04-24T02:27:09;8.55;;;6.53;;
76113;SDS011;64845;53.086;5.834;2023-04-24T02:29:36;10.10;;;6.70;;
76113;SDS011;64845;53.086;5.834;2023-04-24T02:32:01;8.80;;;6.68;;
76113;SDS011;64845;53.086;5.834;2023-04-24T02:34:27;10.10;;;7.10;;
76113;SDS011;64845;53.086;5.834;2023-04-24T02:36:52;5.68;;;5.05;;
76113;SDS011;64845;53.086;5.834;2023-04-24T02:39:19;4.25;;;3.60;;
76113;SDS011;64845;53.086;5.834;2023-04-24T02:41:44;4.80;;;3.90;;
76113;SDS011;64845;53.086;5.834;2023-04-24T02:44:10;4.80;;;4.40;;
76113;SDS011;64845;53.086;5.834;2023-04-24T02:46:36;4.65;;;4.07;;
76113;SDS011;64845;53.086;5.834;2023-04-24T02:49:01;4.80;;;4.30;;
76113;SDS011;64845;53.086;5.834;2023-04-24T02:51:27;4.22;;;3.75;;
76113;SDS011;64845;53.086;5.834;2023-04-24T02:53:52;5.10;;;4.07;;
76113;SDS011;64845;53.086;5.834;2023-04-24T02:56:18;4.13;;;3.70;;
76113;SDS011;64845;53.086;5.834;2023-04-24T02:58:43;4.63;;;3.72;;
76113;SDS011;64845;53.086;5.834;2023-04-24T03:01:09;5.45;;;3.65;;
76113;SDS011;64845;53.086;5.834;2023-04-24T03:03:35;4.35;;;3.75;;
76113;SDS011;64845;53.086;5.834;2023-04-24T03:06:01;4.05;;;3.67;;
76113;SDS011;64845;53.086;5.834;2023-04-24T03:08:26;4.85;;;4.03;;
76113;SDS011;64845;53.086;5.834;2023-04-24T03:10:52;4.75;;;3.50;;
76113;SDS011;64845;53.086;5.834;2023-04-24T03:13:17;4.00;;;3.00;;
76113;SDS011;64845;53.086;5.834;2023-04-24T03:15:42;4.25;;;3.70;;
76113;SDS011;64845;53.086;5.834;2023-04-24T03:18:08;4.60;;;3.50;;
76113;SDS011;64845;53.086;5.834;2023-04-24T03:20:34;6.00;;;3.28;;
76113;SDS011;64845;53.086;5.834;2023-04-24T03:22:59;3.40;;;3.10;;
76113;SDS011;64845;53.086;5.834;2023-04-24T03:25:24;4.38;;;3.42;;
76113;SDS011;64845;53.086;5.834;2023-04-24T03:27:50;3.53;;;3.22;;
76113;SDS011;64845;53.086;5.834;2023-04-24T03:30:16;8.35;;;3.80;;
76113;SDS011;64845;53.086;5.834;2023-04-24T03:32:41;4.13;;;3.72;;
76113;SDS011;64845;53.086;5.834;2023-04-24T03:35:07;6.05;;;4.32;;
76113;SDS011;64845;53.086;5.834;2023-04-24T03:37:33;6.65;;;5.57;;
76113;SDS011;64845;53.086;5.834;2023-04-24T03:39:59;9.88;;;6.32;;
76113;SDS011;64845;53.086;5.834;2023-04-24T03:42:24;8.13;;;6.70;;
76113;SDS011;64845;53.086;5.834;2023-04-24T03:44:49;8.95;;;6.70;;
76113;SDS011;64845;53.086;5.834;2023-04-24T03:47:15;9.95;;;7.90;;
76113;SDS011;64845;53.086;5.834;2023-04-24T03:49:40;10.00;;;7.30;;
76113;SDS011;64845;53.086;5.834;2023-04-24T03:52:06;8.75;;;7.22;;
76113;SDS011;64845;53.086;5.834;2023-04-24T03:54:31;8.00;;;7.20;;
76113;SDS011;64845;53.086;5.834;2023-04-24T03:56:56;10.75;;;7.80;;
76113;SDS011;64845;53.086;5.834;2023-04-24T03:59:22;11.70;;;8.80;;
76113;SDS011;64845;53.086;5.834;2023-04-24T04:01:47;12.25;;;8.48;;
76113;SDS011;64845;53.086;5.834;2023-04-24T04:04:13;7.20;;;6.20;;
76113;SDS011;64845;53.086;5.834;2023-04-24T04:06:38;4.00;;;3.63;;
76113;SDS011;64845;53.086;5.834;2023-04-24T04:09:04;6.25;;;3.90;;
76113;SDS011;64845;53.086;5.834;2023-04-24T04:11:29;5.18;;;3.60;;
76113;SDS011;64845;53.086;5.834;2023-04-24T04:13:55;4.22;;;2.85;;
76113;SDS011;64845;53.086;5.834;2023-04-24T04:16:21;3.67;;;2.72;;
76113;SDS011;64845;53.086;5.834;2023-04-24T04:18:47;6.68;;;3.22;;
76113;SDS011;64845;53.086;5.834;2023-04-24T04:21:12;3.78;;;2.80;;
76113;SDS011;64845;53.086;5.834;2023-04-24T04:23:38;3.92;;;3.28;;
76113;SDS011;64845;53.086;5.834;2023-04-24T04:26:04;4.90;;;3.53;;
76113;SDS011;64845;53.086;5.834;2023-04-24T04:28:30;8.75;;;5.00;;
76113;SDS011;64845;53.086;5.834;2023-04-24T04:30:56;7.60;;;4.07;;
76113;SDS011;64845;53.086;5.834;2023-04-24T04:33:23;8.70;;;4.38;;
76113;SDS011;64845;53.086;5.834;2023-04-24T04:35:49;5.53;;;3.67;;
76113;SDS011;64845;53.086;5.834;2023-04-24T04:38:14;4.70;;;3.45;;
76113;SDS011;64845;53.086;5.834;2023-04-24T04:40:41;3.40;;;2.60;;
76113;SDS011;64845;53.086;5.834;2023-04-24T04:43:07;3.13;;;2.00;;
76113;SDS011;64845;53.086;5.834;2023-04-24T04:45:33;1.48;;;1.05;;
76113;SDS011;64845;53.086;5.834;2023-04-24T04:47:59;1.65;;;1.20;;
76113;SDS011;64845;53.086;5.834;2023-04-24T04:50:26;1.58;;;1.10;;
76113;SDS011;64845;53.086;5.834;2023-04-24T04:52:51;2.45;;;1.23;;
76113;SDS011;64845;53.086;5.834;2023-04-24T04:55:17;2.80;;;1.30;;
76113;SDS011;64845;53.086;5.834;2023-04-24T04:57:43;4.10;;;1.70;;
76113;SDS011;64845;53.086;5.834;2023-04-24T05:00:08;4.05;;;2.25;;
76113;SDS011;64845;53.086;5.834;2023-04-24T05:02:35;2.30;;;1.98;;
76113;SDS011;64845;53.086;5.834;2023-04-24T05:05:01;2.70;;;2.20;;
76113;SDS011;64845;53.086;5.834;2023-04-24T05:07:26;4.80;;;2.97;;
76113;SDS011;64845;53.086;5.834;2023-04-24T05:09:51;8.50;;;3.55;;
76113;SDS011;64845;53.086;5.834;2023-04-24T05:12:17;12.88;;;4.15;;
76113;SDS011;64845;53.086;5.834;2023-04-24T05:14:42;11.32;;;5.85;;
76113;SDS011;64845;53.086;5.834;2023-04-24T05:17:08;13.35;;;6.03;;
76113;SDS011;64845;53.086;5.834;2023-04-24T05:19:33;11.63;;;6.03;;
76113;SDS011;64845;53.086;5.834;2023-04-24T05:22:00;14.77;;;5.80;;
76113;SDS011;64845;53.086;5.834;2023-04-24T05:24:28;13.40;;;5.95;;
76113;SDS011;64845;53.086;5.834;2023-04-24T05:26:53;9.00;;;6.05;;
76113;SDS011;64845;53.086;5.834;2023-04-24T05:29:19;8.98;;;6.28;;
76113;SDS011;64845;53.086;5.834;2023-04-24T05:31:44;8.88;;;5.20;;
76113;SDS011;64845;53.086;5.834;2023-04-24T05:34:09;8.98;;;5.82;;
76113;SDS011;64845;53.086;5.834;2023-04-24T05:36:35;8.70;;;5.15;;
76113;SDS011;64845;53.086;5.834;2023-04-24T05:39:00;6.60;;;4.10;;
76113;SDS011;64845;53.086;5.834;2023-04-24T05:41:25;7.57;;;3.63;;
76113;SDS011;64845;53.086;5.834;2023-04-24T05:43:51;6.47;;;2.78;;
76113;SDS011;64845;53.086;5.834;2023-04-24T05:46:16;4.00;;;2.70;;
76113;SDS011;64845;53.086;5.834;2023-04-24T05:48:42;3.60;;;2.25;;
76113;SDS011;64845;53.086;5.834;2023-04-24T05:51:07;3.42;;;2.25;;
76113;SDS011;64845;53.086;5.834;2023-04-24T05:53:33;3.08;;;2.03;;
76113;SDS011;64845;53.086;5.834;2023-04-24T05:55:58;5.82;;;2.25;;
76113;SDS011;64845;53.086;5.834;2023-04-24T05:58:23;6.32;;;2.17;;
76113;SDS011;64845;53.086;5.834;2023-04-24T06:00:49;3.40;;;2.10;;
76113;SDS011;64845;53.086;5.834;2023-04-24T06:03:14;2.55;;;2.00;;
76113;SDS011;64845;53.086;5.834;2023-04-24T06:05:40;3.25;;;2.20;;
76113;SDS011;64845;53.086;5.834;2023-04-24T06:08:06;3.90;;;1.77;;
76113;SDS011;64845;53.086;5.834;2023-04-24T06:10:31;3.92;;;1.80;;
76113;SDS011;64845;53.086;5.834;2023-04-24T06:12:57;6.65;;;2.05;;
76113;SDS011;64845;53.086;5.834;2023-04-24T06:15:26;1.92;;;1.70;;
76113;SDS011;64845;53.086;5.834;2023-04-24T06:20:21;5.88;;;1.58;;
76113;SDS011;64845;53.086;5.834;2023-04-24T06:22:46;2.65;;;1.40;;
76113;SDS011;64845;53.086;5.834;2023-04-24T06:25:12;6.47;;;1.45;;
76113;SDS011;64845;53.086;5.834;2023-04-24T06:27:37;4.97;;;1.80;;
76113;SDS011;64845;53.086;5.834;2023-04-24T06:30:02;5.70;;;1.73;;
76113;SDS011;64845;53.086;5.834;2023-04-24T06:32:28;8.93;;;3.00;;
76113;SDS011;64845;53.086;5.834;2023-04-24T06:34:55;12.70;;;5.28;;
76113;SDS011;64845;53.086;5.834;2023-04-24T06:37:21;10.82;;;4.95;;
76113;SDS011;64845;53.086;5.834;2023-04-24T06:39:46;18.48;;;8.55;;
76113;SDS011;64845;53.086;5.834;2023-04-24T06:42:12;16.95;;;7.53;;
76113;SDS011;64845;53.086;5.834;2023-04-24T06:44:37;22.00;;;8.10;;
76113;SDS011;64845;53.086;5.834;2023-04-24T06:47:06;21.35;;;8.13;;
76113;SDS011;64845;53.086;5.834;2023-04-24T06:49:33;23.13;;;8.80;;
76113;SDS011;64845;53.086;5.834;2023-04-24T06:51:59;22.88;;;10.68;;
76113;SDS011;64845;53.086;5.834;2023-04-24T06:54:25;21.95;;;11.43;;
76113;SDS011;64845;53.086;5.834;2023-04-24T06:56:50;20.58;;;11.57;;
76113;SDS011;64845;53.086;5.834;2023-04-24T06:59:17;22.17;;;11.30;;
76113;SDS011;64845;53.086;5.834;2023-04-24T07:01:42;20.70;;;12.07;;
76113;SDS011;64845;53.086;5.834;2023-04-24T07:04:07;24.80;;;11.07;;
76113;SDS011;64845;53.086;5.834;2023-04-24T07:06:33;19.05;;;9.32;;
76113;SDS011;64845;53.086;5.834;2023-04-24T07:09:00;18.23;;;8.95;;
76113;SDS011;64845;53.086;5.834;2023-04-24T07:11:26;15.73;;;9.45;;
76113;SDS011;64845;53.086;5.834;2023-04-24T07:13:54;16.13;;;8.65;;
76113;SDS011;64845;53.086;5.834;2023-04-24T07:16:20;19.60;;;9.82;;
76113;SDS011;64845;53.086;5.834;2023-04-24T07:18:45;21.90;;;9.82;;
76113;SDS011;64845;53.086;5.834;2023-04-24T07:21:10;19.60;;;11.85;;
76113;SDS011;64845;53.086;5.834;2023-04-24T07:23:36;25.33;;;11.60;;
76113;SDS011;64845;53.086;5.834;2023-04-24T07:26:02;21.50;;;11.63;;
76113;SDS011;64845;53.086;5.834;2023-04-24T07:28:27;21.05;;;12.60;;
76113;SDS011;64845;53.086;5.834;2023-04-24T07:30:56;22.15;;;13.00;;
76113;SDS011;64845;53.086;5.834;2023-04-24T07:33:22;25.60;;;11.80;;
76113;SDS011;64845;53.086;5.834;2023-04-24T07:35:47;13.77;;;7.85;;
76113;SDS011;64845;53.086;5.834;2023-04-24T07:38:13;23.02;;;9.68;;
76113;SDS011;64845;53.086;5.834;2023-04-24T07:40:38;15.93;;;9.98;;
76113;SDS011;64845;53.086;5.834;2023-04-24T07:43:04;14.60;;;9.60;;
76113;SDS011;64845;53.086;5.834;2023-04-24T07:45:29;15.40;;;8.52;;
76113;SDS011;64845;53.086;5.834;2023-04-24T07:47:56;18.50;;;8.40;;
76113;SDS011;64845;53.086;5.834;2023-04-24T07:50:21;19.63;;;8.02;;
76113;SDS011;64845;53.086;5.834;2023-04-24T07:52:47;14.40;;;7.75;;
76113;SDS011;64845;53.086;5.834;2023-04-24T07:55:13;11.45;;;6.43;;
76113;SDS011;64845;53.086;5.834;2023-04-24T07:57:38;17.65;;;6.90;;
76113;SDS011;64845;53.086;5.834;2023-04-24T08:00:04;12.52;;;6.20;;
76113;SDS011;64845;53.086;5.834;2023-04-24T08:02:30;12.10;;;6.20;;
76113;SDS011;64845;53.086;5.834;2023-04-24T08:04:56;11.05;;;4.88;;
76113;SDS011;64845;53.086;5.834;2023-04-24T08:07:21;10.68;;;5.20;;
76113;SDS011;64845;53.086;5.834;2023-04-24T08:09:48;6.20;;;4.40;;
76113;SDS011;64845;53.086;5.834;2023-04-24T08:12:13;10.70;;;5.13;;
76113;SDS011;64845;53.086;5.834;2023-04-24T08:14:39;13.75;;;5.72;;
76113;SDS011;64845;53.086;5.834;2023-04-24T08:17:04;8.20;;;4.18;;
76113;SDS011;64845;53.086;5.834;2023-04-24T08:19:30;8.88;;;4.63;;
76113;SDS011;64845;53.086;5.834;2023-04-24T08:21:55;13.52;;;5.43;;
76113;SDS011;64845;53.086;5.834;2023-04-24T08:24:21;14.82;;;5.15;;
76113;SDS011;64845;53.086;5.834;2023-04-24T08:26:47;13.85;;;6.13;;
76113;SDS011;64845;53.086;5.834;2023-04-24T08:29:15;13.93;;;6.32;;
76113;SDS011;64845;53.086;5.834;2023-04-24T08:31:40;11.75;;;4.57;;
76113;SDS011;64845;53.086;5.834;2023-04-24T08:34:06;11.55;;;4.88;;
76113;SDS011;64845;53.086;5.834;2023-04-24T08:36:31;12.60;;;4.70;;
76113;SDS011;64845;53.086;5.834;2023-04-24T08:38:57;10.98;;;4.40;;
76113;SDS011;64845;53.086;5.834;2023-04-24T08:41:22;10.93;;;4.35;;
76113;SDS011;64845;53.086;5.834;2023-04-24T08:43:51;14.05;;;3.85;;
76113;SDS011;64845;53.086;5.834;2023-04-24T08:46:16;10.23;;;4.43;;
76113;SDS011;64845;53.086;5.834;2023-04-24T08:48:44;18.10;;;4.53;;
76113;SDS011;64845;53.086;5.834;2023-04-24T08:51:10;8.95;;;3.80;;
76113;SDS011;64845;53.086;5.834;2023-04-24T08:53:36;11.18;;;3.63;;
76113;SDS011;64845;53.086;5.834;2023-04-24T08:56:02;9.68;;;3.60;;
76113;SDS011;64845;53.086;5.834;2023-04-24T08:58:28;11.52;;;2.60;;
76113;SDS011;64845;53.086;5.834;2023-04-24T09:00:55;8.07;;;2.50;;
76113;SDS011;64845;53.086;5.834;2023-04-24T09:03:22;5.22;;;2.65;;
76113;SDS011;64845;53.086;5.834;2023-04-24T09:05:47;7.97;;;2.58;;
76113;SDS011;64845;53.086;5.834;2023-04-24T09:08:16;14.93;;;2.67;;
76113;SDS011;64845;53.086;5.834;2023-04-24T09:10:43;8.13;;;3.05;;
76113;SDS011;64845;53.086;5.834;2023-04-24T09:13:09;10.95;;;2.88;;
76113;SDS011;64845;53.086;5.834;2023-04-24T09:15:36;10.50;;;3.20;;
76113;SDS011;64845;53.086;5.834;2023-04-24T09:18:03;9.25;;;2.72;;
76113;SDS011;64845;53.086;5.834;2023-04-24T09:20:29;11.23;;;2.97;;
76113;SDS011;64845;53.086;5.834;2023-04-24T09:22:56;13.15;;;3.35;;
76113;SDS011;64845;53.086;5.834;2023-04-24T09:25:22;10.43;;;2.35;;
76113;SDS011;64845;53.086;5.834;2023-04-24T09:27:53;16.17;;;3.10;;
76113;SDS011;64845;53.086;5.834;2023-04-24T09:30:22;12.98;;;2.92;;
76113;SDS011;64845;53.086;5.834;2023-04-24T09:32:48;11.35;;;2.97;;
76113;SDS011;64845;53.086;5.834;2023-04-24T09:35:14;13.07;;;2.70;;
76113;SDS011;64845;53.086;5.834;2023-04-24T09:40:08;10.93;;;2.75;;
76113;SDS011;64845;53.086;5.834;2023-04-24T09:42:36;13.90;;;2.90;;
76113;SDS011;64845;53.086;5.834;2023-04-24T09:45:02;8.15;;;2.35;;
76113;SDS011;64845;53.086;5.834;2023-04-24T09:47:28;13.90;;;2.40;;
76113;SDS011;64845;53.086;5.834;2023-04-24T09:50:01;9.25;;;2.33;;
76113;SDS011;64845;53.086;5.834;2023-04-24T09:52:34;10.40;;;3.08;;
76113;SDS011;64845;53.086;5.834;2023-04-24T09:55:00;8.95;;;2.60;;
76113;SDS011;64845;53.086;5.834;2023-04-24T09:57:25;17.27;;;3.22;;
76113;SDS011;64845;53.086;5.834;2023-04-24T09:59:50;13.13;;;2.20;;
76113;SDS011;64845;53.086;5.834;2023-04-24T10:02:19;14.75;;;2.38;;
76113;SDS011;64845;53.086;5.834;2023-04-24T10:04:55;19.20;;;3.00;;
76113;SDS011;64845;53.086;5.834;2023-04-24T10:07:21;12.82;;;2.33;;
76113;SDS011;64845;53.086;5.834;2023-04-24T10:09:46;21.05;;;2.53;;
76113;SDS011;64845;53.086;5.834;2023-04-24T10:12:12;12.13;;;2.70;;
76113;SDS011;64845;53.086;5.834;2023-04-24T10:14:38;12.13;;;2.45;;
76113;SDS011;64845;53.086;5.834;2023-04-24T10:17:04;13.13;;;2.22;;
76113;SDS011;64845;53.086;5.834;2023-04-24T10:19:31;13.25;;;2.67;;
76113;SDS011;64845;53.086;5.834;2023-04-24T10:21:57;12.05;;;2.08;;
76113;SDS011;64845;53.086;5.834;2023-04-24T10:24:23;10.95;;;2.58;;
76113;SDS011;64845;53.086;5.834;2023-04-24T10:26:48;11.88;;;1.95;;
76113;SDS011;64845;53.086;5.834;2023-04-24T10:29:15;10.77;;;2.08;;
76113;SDS011;64845;53.086;5.834;2023-04-24T10:31:42;10.55;;;1.83;;
76113;SDS011;64845;53.086;5.834;2023-04-24T10:34:10;9.98;;;2.08;;
76113;SDS011;64845;53.086;5.834;2023-04-24T10:36:38;13.38;;;2.22;;
76113;SDS011;64845;53.086;5.834;2023-04-24T10:39:08;13.80;;;2.33;;
76113;SDS011;64845;53.086;5.834;2023-04-24T10:41:39;13.27;;;2.50;;
76113;SDS011;64845;53.086;5.834;2023-04-24T10:44:08;6.85;;;1.73;;
76113;SDS011;64845;53.086;5.834;2023-04-24T10:46:38;10.90;;;1.83;;
76113;SDS011;64845;53.086;5.834;2023-04-24T10:49:07;10.15;;;2.33;;
76113;SDS011;64845;53.086;5.834;2023-04-24T10:56:52;7.57;;;1.55;;
76113;SDS011;64845;53.086;5.834;2023-04-24T10:59:27;9.90;;;2.03;;
76113;SDS011;64845;53.086;5.834;2023-04-24T11:02:00;5.10;;;1.52;;
76113;SDS011;64845;53.086;5.834;2023-04-24T11:04:28;8.20;;;1.70;;
76113;SDS011;64845;53.086;5.834;2023-04-24T11:06:55;7.53;;;1.50;;
76113;SDS011;64845;53.086;5.834;2023-04-24T11:09:21;13.05;;;1.75;;
76113;SDS011;64845;53.086;5.834;2023-04-24T11:11:47;5.97;;;1.83;;
76113;SDS011;64845;53.086;5.834;2023-04-24T11:14:15;8.48;;;1.40;;
76113;SDS011;64845;53.086;5.834;2023-04-24T11:19:10;6.38;;;1.77;;
76113;SDS011;64845;53.086;5.834;2023-04-24T11:26:59;6.80;;;1.25;;
76113;SDS011;64845;53.086;5.834;2023-04-24T11:29:43;7.95;;;1.60;;
76113;SDS011;64845;53.086;5.834;2023-04-24T11:34:58;4.72;;;1.50;;
76113;SDS011;64845;53.086;5.834;2023-04-24T11:40:10;3.90;;;1.23;;
76113;SDS011;64845;53.086;5.834;2023-04-24T11:42:38;12.38;;;1.65;;
76113;SDS011;64845;53.086;5.834;2023-04-24T11:45:09;5.85;;;1.52;;
76113;SDS011;64845;53.086;5.834;2023-04-24T11:47:46;7.20;;;1.45;;
76113;SDS011;64845;53.086;5.834;2023-04-24T11:50:12;2.08;;;1.23;;
76113;SDS011;64845;53.086;5.834;2023-04-24T11:52:40;11.13;;;1.60;;
76113;SDS011;64845;53.086;5.834;2023-04-24T11:55:07;6.25;;;1.10;;
76113;SDS011;64845;53.086;5.834;2023-04-24T11:57:33;5.38;;;1.35;;
76113;SDS011;64845;53.086;5.834;2023-04-24T12:00:02;5.45;;;1.50;;
76113;SDS011;64845;53.086;5.834;2023-04-24T12:02:33;8.85;;;1.10;;
76113;SDS011;64845;53.086;5.834;2023-04-24T12:04:58;7.03;;;1.48;;
76113;SDS011;64845;53.086;5.834;2023-04-24T12:07:23;8.32;;;1.00;;
76113;SDS011;64845;53.086;5.834;2023-04-24T12:09:58;17.95;;;1.70;;
76113;SDS011;64845;53.086;5.834;2023-04-24T12:12:25;10.07;;;1.60;;
76113;SDS011;64845;53.086;5.834;2023-04-24T12:14:53;7.10;;;1.70;;
76113;SDS011;64845;53.086;5.834;2023-04-24T12:17:26;8.05;;;1.40;;
76113;SDS011;64845;53.086;5.834;2023-04-24T12:19:59;7.82;;;1.48;;
76113;SDS011;64845;53.086;5.834;2023-04-24T12:22:50;8.07;;;1.20;;
76113;SDS011;64845;53.086;5.834;2023-04-24T12:25:16;4.28;;;0.70;;
76113;SDS011;64845;53.086;5.834;2023-04-24T12:27:44;5.63;;;1.10;;
76113;SDS011;64845;53.086;5.834;2023-04-24T12:30:14;6.43;;;0.93;;
76113;SDS011;64845;53.086;5.834;2023-04-24T12:35:11;3.22;;;0.70;;
76113;SDS011;64845;53.086;5.834;2023-04-24T12:37:36;9.68;;;1.27;;
76113;SDS011;64845;53.086;5.834;2023-04-24T12:40:08;5.15;;;1.50;;
76113;SDS011;64845;53.086;5.834;2023-04-24T12:42:35;7.45;;;1.00;;
76113;SDS011;64845;53.086;5.834;2023-04-24T12:45:07;0.85;;;0.40;;
76113;SDS011;64845;53.086;5.834;2023-04-24T12:47:33;4.30;;;0.93;;
76113;SDS011;64845;53.086;5.834;2023-04-24T12:50:00;2.65;;;0.73;;
76113;SDS011;64845;53.086;5.834;2023-04-24T12:52:27;3.42;;;0.90;;
76113;SDS011;64845;53.086;5.834;2023-04-24T12:54:54;4.78;;;1.30;;
76113;SDS011;64845;53.086;5.834;2023-04-24T12:57:23;5.95;;;0.98;;
76113;SDS011;64845;53.086;5.834;2023-04-24T12:59:49;5.40;;;0.90;;
76113;SDS011;64845;53.086;5.834;2023-04-24T13:02:14;6.00;;;1.13;;
76113;SDS011;64845;53.086;5.834;2023-04-24T13:04:43;4.95;;;1.52;;
76113;SDS011;64845;53.086;5.834;2023-04-24T13:07:09;6.50;;;1.55;;
76113;SDS011;64845;53.086;5.834;2023-04-24T13:09:35;8.23;;;1.40;;
76113;SDS011;64845;53.086;5.834;2023-04-24T13:12:00;8.23;;;1.70;;
76113;SDS011;64845;53.086;5.834;2023-04-24T13:14:26;8.13;;;1.60;;
76113;SDS011;64845;53.086;5.834;2023-04-24T13:16:51;10.82;;;2.10;;
76113;SDS011;64845;53.086;5.834;2023-04-24T13:19:17;10.20;;;1.92;;
76113;SDS011;64845;53.086;5.834;2023-04-24T13:21:43;10.70;;;1.60;;
76113;SDS011;64845;53.086;5.834;2023-04-24T13:24:08;9.55;;;1.77;;
76113;SDS011;64845;53.086;5.834;2023-04-24T13:26:34;17.63;;;2.40;;
76113;SDS011;64845;53.086;5.834;2023-04-24T13:29:00;10.38;;;2.35;;
76113;SDS011;64845;53.086;5.834;2023-04-24T13:31:25;15.20;;;2.65;;
76113;SDS011;64845;53.086;5.834;2023-04-24T13:33:50;12.18;;;2.00;;
76113;SDS011;64845;53.086;5.834;2023-04-24T13:36:16;11.98;;;2.30;;
76113;SDS011;64845;53.086;5.834;2023-04-24T13:38:42;14.65;;;2.65;;
76113;SDS011;64845;53.086;5.834;2023-04-24T13:41:09;12.60;;;2.97;;
76113;SDS011;64845;53.086;5.834;2023-04-24T13:43:34;12.40;;;2.38;;
76113;SDS011;64845;53.086;5.834;2023-04-24T13:46:00;10.63;;;2.00;;
76113;SDS011;64845;53.086;5.834;2023-04-24T13:48:28;13.77;;;2.47;;
76113;SDS011;64845;53.086;5.834;2023-04-24T13:50:53;14.00;;;2.60;;
76113;SDS011;64845;53.086;5.834;2023-04-24T13:53:19;16.40;;;2.72;;
76113;SDS011;64845;53.086;5.834;2023-04-24T13:55:45;14.55;;;2.53;;
76113;SDS011;64845;53.086;5.834;2023-04-24T13:58:10;23.05;;;2.90;;
76113;SDS011;64845;53.086;5.834;2023-04-24T14:00:35;14.73;;;3.03;;
76113;SDS011;64845;53.086;5.834;2023-04-24T14:03:01;12.90;;;2.50;;
76113;SDS011;64845;53.086;5.834;2023-04-24T14:05:26;16.88;;;2.42;;
76113;SDS011;64845;53.086;5.834;2023-04-24T14:07:52;14.55;;;2.72;;
76113;SDS011;64845;53.086;5.834;2023-04-24T14:10:17;12.77;;;3.00;;
76113;SDS011;64845;53.086;5.834;2023-04-24T14:12:43;16.67;;;2.80;;
76113;SDS011;64845;53.086;5.834;2023-04-24T14:15:08;14.20;;;3.65;;
76113;SDS011;64845;53.086;5.834;2023-04-24T14:17:34;15.80;;;2.97;;
76113;SDS011;64845;53.086;5.834;2023-04-24T14:20:00;7.35;;;2.20;;
76113;SDS011;64845;53.086;5.834;2023-04-24T14:22:25;14.15;;;2.92;;
76113;SDS011;64845;53.086;5.834;2023-04-24T14:24:51;13.82;;;2.38;;
76113;SDS011;64845;53.086;5.834;2023-04-24T14:27:16;9.73;;;2.30;;
76113;SDS011;64845;53.086;5.834;2023-04-24T14:29:42;13.52;;;2.88;;
76113;SDS011;64845;53.086;5.834;2023-04-24T14:32:07;11.18;;;2.25;;
76113;SDS011;64845;53.086;5.834;2023-04-24T14:34:34;13.25;;;2.63;;
76113;SDS011;64845;53.086;5.834;2023-04-24T14:36:59;10.07;;;2.25;;
76113;SDS011;64845;53.086;5.834;2023-04-24T14:39:25;9.75;;;2.35;;
76113;SDS011;64845;53.086;5.834;2023-04-24T14:41:51;9.95;;;2.80;;
76113;SDS011;64845;53.086;5.834;2023-04-24T14:44:17;10.38;;;2.38;;
76113;SDS011;64845;53.086;5.834;2023-04-24T14:46:42;7.93;;;2.38;;
76113;SDS011;64845;53.086;5.834;2023-04-24T14:49:08;11.35;;;2.47;;
76113;SDS011;64845;53.086;5.834;2023-04-24T14:51:35;8.57;;;1.98;;
76113;SDS011;64845;53.086;5.834;2023-04-24T14:54:01;8.48;;;2.30;;
76113;SDS011;64845;53.086;5.834;2023-04-24T14:56:26;12.30;;;2.60;;
76113;SDS011;64845;53.086;5.834;2023-04-24T14:58:52;9.70;;;2.13;;
76113;SDS011;64845;53.086;5.834;2023-04-24T15:01:18;13.93;;;2.63;;
76113;SDS011;64845;53.086;5.834;2023-04-24T15:03:43;7.35;;;1.90;;